Time;durP1;ratioP1;P1;durP2;ratioP2;P2;SDS_P1;SDS_P2;PMS_P1;PMS_P2;Temp;Humidity;BMP_temperature;BMP_pressure;BME280_temperature;BME280_humidity;BME280_pressure;Samples;Min_cycle;Max_cycle;Signal;HPM_P1;HPM_P2
2022/04/05 00:00:53;;;;;;;10.13;7.80;;;1.90;1.00;2.20;93362.00;;;;7394099;19;20144;-78
2022/04/05 00:03:20;;;;;;;12.10;7.50;;;1.90;1.00;2.10;93350.00;;;;7393663;19;20604;-80
2022/04/05 00:05:54;;;;;;;9.80;7.00;;;1.90;1.00;2.10;93374.00;;;;7394795;19;20140;-78
2022/04/05 00:08:21;;;;;;;11.10;7.87;;;1.90;1.00;2.10;93356.00;;;;7393496;19;20565;-78
2022/04/05 00:10:48;;;;;;;8.87;6.93;;;1.90;1.00;2.10;93295.00;;;;7395109;19;20607;-78
2022/04/05 00:13:22;;;;;;;11.33;7.43;;;1.90;1.00;2.10;93308.00;;;;7394191;19;20151;-77
2022/04/05 00:15:50;;;;;;;9.97;6.97;;;1.90;1.00;2.20;93311.00;;;;7396138;19;20141;-76
2022/04/05 00:18:17;;;;;;;12.17;6.80;;;1.90;1.00;2.20;93304.00;;;;7395872;19;20120;-76
2022/04/05 00:20:51;;;;;;;9.17;6.33;;;2.00;1.00;2.30;93286.00;;;;7395248;19;20140;-78
2022/04/05 00:23:19;;;;;;;9.80;6.87;;;2.00;1.00;2.20;93308.00;;;;7393733;19;20150;-77
2022/04/05 00:25:46;;;;;;;9.27;6.40;;;2.10;1.00;2.30;93294.00;;;;7396223;19;20146;-76
2022/04/05 00:28:23;;;;;;;10.63;6.10;;;2.10;1.00;2.40;93262.00;;;;7395237;19;20612;-79
2022/04/05 00:30:50;;;;;;;8.07;6.63;;;2.20;1.00;2.40;93282.00;;;;7392591;19;20141;-77
2022/04/05 00:33:18;;;;;;;9.47;6.67;;;2.20;1.00;2.50;93324.00;;;;7393077;19;20634;-79
2022/04/05 00:35:52;;;;;;;7.80;6.33;;;2.20;1.00;2.50;93273.00;;;;7394205;19;20148;-79
2022/04/05 00:38:19;;;;;;;9.77;6.47;;;2.20;1.00;2.60;93324.00;;;;7394282;19;20155;-78
2022/04/05 00:40:46;;;;;;;8.77;6.63;;;2.30;1.00;2.60;93286.00;;;;7392345;19;20164;-77
2022/04/05 00:43:20;;;;;;;11.60;5.87;;;2.30;1.00;2.60;93299.00;;;;7393885;19;20113;-77
2022/04/05 00:45:47;;;;;;;7.50;5.90;;;2.30;1.00;2.60;93341.00;;;;7392399;19;20135;-78
2022/04/05 00:48:36;;;;;;;9.20;6.23;;;2.40;1.00;2.70;93324.00;;;;7392710;19;20114;-79
2022/04/05 00:51:09;;;;;;;9.80;6.47;;;2.40;1.00;2.70;93326.00;;;;7392772;19;20174;-80
2022/04/05 00:53:37;;;;;;;7.90;5.87;;;2.40;1.00;2.70;93289.00;;;;7393122;19;20137;-75
2022/04/05 00:56:08;;;;;;;6.57;5.87;;;2.50;1.00;2.70;93329.00;;;;7391899;19;20141;-79
2022/04/05 00:58:50;;;;;;;7.00;5.80;;;2.50;1.00;2.70;93303.00;;;;7392196;19;20161;-77
2022/04/05 01:01:19;;;;;;;8.73;5.40;;;2.50;1.00;2.70;93333.00;;;;7391691;19;20232;-81
2022/04/05 01:03:53;;;;;;;8.67;5.70;;;2.50;1.00;2.80;93289.00;;;;7392487;19;20466;-78
2022/04/05 01:06:31;;;;;;;7.30;5.67;;;2.50;1.00;2.80;93290.00;;;;7391562;19;20129;-80
2022/04/05 01:09:09;;;;;;;7.97;5.80;;;2.50;1.00;2.80;93310.00;;;;7392763;19;20144;-77
2022/04/05 01:11:37;;;;;;;7.67;5.67;;;2.50;1.00;2.70;93290.00;;;;7394165;19;20918;-78
2022/04/05 01:14:06;;;;;;;7.43;5.70;;;2.50;1.00;2.80;93296.00;;;;7392002;19;20143;-79
2022/04/05 01:16:40;;;;;;;8.00;5.90;;;2.50;1.00;2.80;93295.00;;;;7391383;19;20478;-75
2022/04/05 01:19:08;;;;;;;8.93;6.27;;;2.50;1.00;2.80;93292.00;;;;7392742;19;20133;-78
2022/04/05 01:21:36;;;;;;;7.77;5.97;;;2.50;1.00;2.80;93312.00;;;;7390608;19;20502;-77
2022/04/05 01:24:13;;;;;;;9.20;5.90;;;2.50;1.00;2.80;93334.00;;;;7391373;19;20155;-77
2022/04/05 01:26:46;;;;;;;10.47;5.90;;;2.40;1.00;2.80;93318.00;;;;7391494;19;20141;-79
2022/04/05 01:29:24;;;;;;;8.07;5.87;;;2.50;1.00;2.80;93300.00;;;;7392438;19;20205;-77
2022/04/05 01:31:55;;;;;;;8.17;5.60;;;2.50;1.00;2.90;93284.00;;;;7391525;19;20161;-79
2022/04/05 01:34:37;;;;;;;7.30;5.97;;;2.50;1.00;2.80;93305.00;;;;7389739;19;20164;-77
2022/04/05 01:37:08;;;;;;;7.43;5.80;;;2.50;1.00;2.80;93309.00;;;;7391939;19;20167;-77
2022/04/05 01:39:43;;;;;;;8.97;5.53;;;2.50;1.00;2.80;93304.00;;;;7392711;19;20208;-78
2022/04/05 01:42:13;;;;;;;9.40;6.20;;;2.50;1.00;2.80;93252.00;;;;7390279;19;20137;-77
2022/04/05 01:44:43;;;;;;;7.43;5.70;;;2.50;1.00;2.80;93293.00;;;;7391523;19;20591;-80
2022/04/05 01:47:18;;;;;;;7.27;5.70;;;2.50;1.00;2.80;93271.00;;;;7392297;19;20124;-79
2022/04/05 01:49:50;;;;;;;9.77;5.73;;;2.50;1.00;2.80;93276.00;;;;7392152;19;20160;-79
2022/04/05 01:52:24;;;;;;;7.53;5.83;;;2.50;1.00;2.70;93295.00;;;;7392228;19;20160;-80
2022/04/05 01:54:51;;;;;;;7.33;5.57;;;2.40;33.30;2.60;93275.00;;;;7391169;19;20141;-77
2022/04/05 01:57:18;;;;;;;7.70;5.90;;;2.40;51.00;2.60;93272.00;;;;7393435;19;20150;-77
2022/04/05 01:59:52;;;;;;;9.77;6.00;;;2.30;87.10;2.50;93267.00;;;;7391064;19;20121;-77
2022/04/05 02:02:19;;;;;;;7.77;5.93;;;2.30;99.90;2.50;93275.00;;;;7389146;19;20603;-76
2022/04/05 02:04:46;;;;;;;8.20;6.30;;;2.20;99.90;2.50;93254.00;;;;7392505;19;20125;-77
2022/04/05 02:07:23;;;;;;;9.53;5.93;;;2.20;99.90;2.50;93234.00;;;;7391986;19;20156;-76
2022/04/05 02:09:53;;;;;;;6.87;6.07;;;2.20;99.10;2.50;93239.00;;;;7388858;19;20165;-77
2022/04/05 02:12:20;;;;;;;10.27;6.60;;;2.20;90.60;2.50;93244.00;;;;7390163;19;20164;-77
2022/04/05 02:14:53;;;;;;;8.67;6.03;;;2.20;99.90;2.50;93268.00;;;;7390852;19;20133;-76
2022/04/05 02:17:20;;;;;;;8.53;6.03;;;2.30;99.90;2.60;93246.00;;;;7390084;19;20141;-79
2022/04/05 02:19:47;;;;;;;9.40;5.70;;;2.20;91.40;2.50;93245.00;;;;7395490;19;20141;-80
2022/04/05 02:22:22;;;;;;;8.33;5.93;;;2.30;69.80;2.60;93240.00;;;;7396734;19;20124;-78
2022/04/05 02:24:49;;;;;;;8.33;5.97;;;2.30;80.50;2.70;93237.00;;;;7397835;19;20512;-79
2022/04/05 02:27:20;;;;;;;7.47;5.80;;;2.30;99.90;2.60;93231.00;;;;7399618;19;20126;-80
2022/04/05 02:29:54;;;;;;;7.47;5.43;;;2.30;84.30;2.70;93238.00;;;;7397951;19;20144;-79
2022/04/05 02:32:34;;;;;;;7.70;5.67;;;2.40;99.90;2.80;93264.00;;;;7398223;19;20125;-80
2022/04/05 02:35:10;;;;;;;9.20;5.87;;;2.40;92.60;2.70;93238.00;;;;7399117;19;20125;-77
2022/04/05 02:37:38;;;;;;;10.23;5.90;;;2.40;99.90;2.80;93267.00;;;;7397080;19;20610;-79
2022/04/05 02:40:06;;;;;;;7.33;5.50;;;2.40;99.90;2.80;93242.00;;;;7398687;19;20141;-78
2022/04/05 02:42:39;;;;;;;10.23;5.97;;;2.40;99.90;2.80;93264.00;;;;7394087;19;20614;-76
2022/04/05 02:45:07;;;;;;;7.10;5.40;;;2.40;99.90;2.90;93227.00;;;;7396651;19;20149;-78
2022/04/05 02:47:34;;;;;;;8.17;5.33;;;2.50;99.90;2.90;93220.00;;;;7397894;19;20181;-78
2022/04/05 02:50:09;;;;;;;7.97;5.60;;;2.50;99.90;2.90;93243.00;;;;7397841;19;20148;-76
2022/04/05 02:52:37;;;;;;;7.90;5.23;;;2.50;98.20;2.90;93266.00;;;;7396362;19;20143;-78
2022/04/05 02:55:06;;;;;;;7.70;5.63;;;2.60;99.90;2.90;93246.00;;;;7396679;19;20144;-79
2022/04/05 02:57:43;;;;;;;7.10;5.37;;;2.60;77.10;3.00;93243.00;;;;7397523;19;20140;-77
2022/04/05 03:00:15;;;;;;;6.57;5.27;;;2.70;43.90;3.00;93264.00;;;;7396694;19;20586;-77
2022/04/05 03:02:49;;;;;;;8.53;5.40;;;2.60;98.70;3.10;93230.00;;;;7397534;19;20590;-79
2022/04/05 03:05:19;;;;;;;7.43;5.60;;;2.70;99.90;3.10;93231.00;;;;7396276;19;20144;-78
2022/04/05 03:07:46;;;;;;;5.87;5.07;;;2.80;99.90;3.00;93267.00;;;;7397915;19;20569;-79
2022/04/05 03:10:19;;;;;;;6.57;5.30;;;2.70;99.90;3.10;93223.00;;;;7395733;19;20129;-77
2022/04/05 03:12:47;;;;;;;7.07;5.27;;;2.80;99.90;3.10;93258.00;;;;7396855;19;20136;-79
2022/04/05 03:15:17;;;;;;;6.80;5.20;;;2.80;99.90;3.10;93264.00;;;;7395258;19;20159;-77
2022/04/05 03:17:50;;;;;;;6.03;5.03;;;2.80;99.90;3.20;93239.00;;;;7397530;19;20589;-77
2022/04/05 03:20:17;;;;;;;6.90;5.07;;;2.80;99.90;3.20;93221.00;;;;7395770;19;20144;-77
2022/04/05 03:22:44;;;;;;;7.20;4.77;;;2.80;99.90;3.20;93233.00;;;;7394181;19;20593;-77
2022/04/05 03:25:18;;;;;;;8.03;5.00;;;2.90;99.90;3.30;93229.00;;;;7397671;19;20145;-80
2022/04/05 03:27:45;;;;;;;6.20;4.27;;;3.00;99.90;3.20;93192.00;;;;7395456;19;20136;-78
2022/04/05 03:30:15;;;;;;;8.40;5.20;;;3.00;99.90;3.20;93259.00;;;;7395532;19;20140;-77
2022/04/05 03:33:02;;;;;;;8.43;5.13;;;2.90;99.90;3.20;93228.00;;;;7395492;19;20204;-77
2022/04/05 03:35:29;;;;;;;7.57;4.40;;;2.90;99.90;3.20;93227.00;;;;7396098;19;20128;-77
2022/04/05 03:38:03;;;;;;;6.97;4.80;;;2.90;99.90;3.20;93244.00;;;;7394631;19;20147;-76
2022/04/05 03:40:32;;;;;;;7.13;4.87;;;2.90;99.90;3.30;93225.00;;;;7395708;19;20640;-77
2022/04/05 03:42:59;;;;;;;6.23;4.53;;;2.90;99.90;3.30;93240.00;;;;7394518;19;20144;-77
2022/04/05 03:45:33;;;;;;;6.53;4.57;;;2.80;99.90;3.20;93241.00;;;;7395075;19;20128;-78
2022/04/05 03:48:00;;;;;;;6.87;4.90;;;2.80;99.90;3.20;93250.00;;;;7395114;19;20213;-76
2022/04/05 03:50:28;;;;;;;7.03;5.10;;;2.80;99.90;3.10;93282.00;;;;7394474;19;20129;-79
2022/04/05 03:53:01;;;;;;;5.77;4.60;;;2.80;99.90;3.10;93264.00;;;;7394927;19;20216;-79
2022/04/05 03:55:29;;;;;;;5.83;4.60;;;2.80;1.00;3.10;93271.00;;;;7397453;19;20508;-79
2022/04/05 03:57:56;;;;;;;5.30;4.50;;;2.80;1.00;3.10;93238.00;;;;7397648;19;20129;-79
2022/04/05 04:00:29;;;;;;;7.47;4.50;;;2.70;1.00;3.10;93239.00;;;;7394388;19;20145;-78
2022/04/05 04:02:56;;;;;;;6.50;4.53;;;2.70;1.00;3.00;93257.00;;;;7392595;19;20129;-80
2022/04/05 04:05:25;;;;;;;5.03;4.23;;;2.70;1.00;3.10;93248.00;;;;7394266;19;20140;-79
2022/04/05 04:07:58;;;;;;;6.03;4.70;;;2.70;46.60;3.00;93238.00;;;;7394773;19;20132;-77
2022/04/05 04:10:28;;;;;;;4.80;4.20;;;2.60;99.90;3.00;93254.00;;;;7391828;19;20173;-77
2022/04/05 04:12:55;;;;;;;5.77;4.60;;;2.60;99.90;3.00;93255.00;;;;7393577;19;20125;-78
2022/04/05 04:15:29;;;;;;;4.97;4.47;;;2.60;99.90;3.00;93269.00;;;;7392853;19;20563;-78
2022/04/05 04:17:56;;;;;;;8.63;4.50;;;2.60;99.90;3.00;93278.00;;;;7393212;19;20165;-78
2022/04/05 04:20:23;;;;;;;5.50;4.90;;;2.60;99.90;3.00;93284.00;;;;7395902;19;20128;-77
2022/04/05 04:22:57;;;;;;;5.30;4.13;;;2.60;99.90;3.00;93239.00;;;;7391680;19;20145;-79
2022/04/05 04:25:24;;;;;;;6.83;4.67;;;2.60;1.00;3.10;93241.00;;;;7392872;19;20136;-78
2022/04/05 04:27:51;;;;;;;5.80;4.20;;;2.50;1.00;3.00;93236.00;;;;7393791;19;20129;-76
2022/04/05 04:30:25;;;;;;;5.00;4.43;;;2.50;1.00;2.90;93234.00;;;;7392643;19;20129;-77
2022/04/05 04:33:06;;;;;;;5.77;4.10;;;2.50;1.00;3.00;93278.00;;;;7393797;19;20145;-79
2022/04/05 04:35:43;;;;;;;6.17;4.80;;;2.50;1.00;2.90;93243.00;;;;7393214;19;20583;-77
2022/04/05 04:38:12;;;;;;;8.63;4.90;;;2.40;1.00;2.90;93248.00;;;;7393205;19;20598;-77
2022/04/05 04:40:40;;;;;;;6.23;4.47;;;2.40;20.30;2.90;93247.00;;;;7391979;19;20125;-77
2022/04/05 04:43:16;;;;;;;6.40;4.57;;;2.40;59.70;3.00;93227.00;;;;7391636;19;20149;-77
2022/04/05 04:45:44;;;;;;;5.73;4.40;;;2.40;90.60;2.90;93252.00;;;;7393078;19;20595;-78
2022/04/05 04:48:12;;;;;;;4.27;3.83;;;2.40;99.90;2.90;93236.00;;;;7393740;19;20583;-78
2022/04/05 04:50:50;;;;;;;4.97;4.47;;;2.50;99.90;3.10;93265.00;;;;7391516;19;20136;-76
2022/04/05 04:53:17;;;;;;;6.17;4.10;;;2.50;99.90;3.00;93234.00;;;;7392150;19;20141;-76
2022/04/05 04:55:45;;;;;;;5.17;4.00;;;2.50;99.90;3.00;93275.00;;;;7392037;19;20237;-77
2022/04/05 04:58:34;;;;;;;6.70;4.47;;;2.50;99.90;3.00;93252.00;;;;7391555;19;20140;-76
2022/04/05 05:01:01;;;;;;;5.40;4.00;;;2.60;99.90;3.10;93250.00;;;;7391984;19;20595;-77
2022/04/05 05:03:35;;;;;;;7.30;4.50;;;2.50;99.90;3.10;93254.00;;;;7391986;19;20607;-77
2022/04/05 05:06:04;;;;;;;7.67;4.43;;;2.50;99.90;3.00;93208.00;;;;7391595;19;20116;-77
2022/04/05 05:08:33;;;;;;;5.73;4.47;;;2.50;99.90;3.10;93234.00;;;;7390799;19;20132;-77
2022/04/05 05:11:06;;;;;;;4.83;3.87;;;2.60;99.90;3.10;93259.00;;;;7391457;19;20514;-77
2022/04/05 05:13:33;;;;;;;5.50;4.40;;;2.60;58.30;3.00;93220.00;;;;7392573;19;20133;-78
2022/04/05 05:16:00;;;;;;;4.43;4.03;;;2.70;1.00;3.10;93221.00;;;;7391112;19;20495;-78
2022/04/05 05:18:35;;;;;;;6.53;4.73;;;2.70;1.00;3.10;93246.00;;;;7391706;19;20129;-77
2022/04/05 05:21:02;;;;;;;5.53;4.57;;;2.70;1.00;3.10;93285.00;;;;7392917;19;20493;-80
2022/04/05 05:23:29;;;;;;;5.70;4.60;;;2.70;1.00;3.10;93215.00;;;;7391542;19;20159;-78
2022/04/05 05:26:04;;;;;;;6.43;4.43;;;2.70;1.00;3.20;93244.00;;;;7391208;19;20137;-76
2022/04/05 05:28:31;;;;;;;5.20;4.30;;;2.70;1.00;3.10;93239.00;;;;7392064;19;20148;-79
2022/04/05 05:30:58;;;;;;;5.67;4.23;;;2.70;1.00;3.20;93267.00;;;;7391050;19;20140;-78
2022/04/05 05:33:44;;;;;;;4.87;4.30;;;2.70;1.00;3.20;93223.00;;;;7389723;19;20151;-81
2022/04/05 05:36:18;;;;;;;5.60;4.20;;;2.70;1.00;3.20;93268.00;;;;7390734;19;20137;-78
2022/04/05 05:38:52;;;;;;;5.80;4.47;;;2.80;1.00;3.30;93253.00;;;;7391601;19;20511;-78
2022/04/05 05:41:19;;;;;;;6.07;4.37;;;2.80;1.00;3.40;93241.00;;;;7391106;19;20160;-77
2022/04/05 05:43:46;;;;;;;6.33;4.30;;;2.80;2.50;3.20;93282.00;;;;7393317;19;20513;-81
2022/04/05 05:46:20;;;;;;;4.60;3.80;;;2.80;1.00;3.40;93256.00;;;;7392146;19;20141;-78
2022/04/05 05:48:47;;;;;;;5.33;3.50;;;2.80;1.00;3.40;93296.00;;;;7391159;19;20144;-79
2022/04/05 05:51:14;;;;;;;4.97;3.90;;;2.90;1.00;3.40;93284.00;;;;7391115;19;20136;-80
2022/04/05 05:53:48;;;;;;;6.10;3.83;;;2.90;1.00;3.50;93304.00;;;;7393913;19;20145;-81
2022/04/05 05:56:16;;;;;;;4.67;3.37;;;2.90;1.00;3.40;93305.00;;;;7397788;19;20144;-78
2022/04/05 05:58:43;;;;;;;4.50;3.40;;;3.00;1.00;3.60;93271.00;;;;7399610;19;20240;-79
2022/04/05 06:01:16;;;;;;;4.70;3.70;;;2.90;1.00;3.60;93277.00;;;;7398001;19;20160;-78
2022/04/05 06:03:44;;;;;;;4.00;3.40;;;3.10;1.00;3.80;93290.00;;;;7399314;19;20148;-80
2022/04/05 06:06:11;;;;;;;3.00;2.70;;;3.10;1.00;3.80;93294.00;;;;7398046;19;20117;-79
2022/04/05 06:08:44;;;;;;;3.30;3.00;;;3.10;1.00;3.80;93302.00;;;;7396863;19;20602;-79
2022/04/05 06:11:12;;;;;;;4.27;3.27;;;3.20;1.00;3.90;93286.00;;;;7397935;19;20476;-79
2022/04/05 06:13:40;;;;;;;3.93;3.00;;;3.20;1.00;4.00;93330.00;;;;7397620;19;20141;-79
2022/04/05 06:16:14;;;;;;;3.00;2.70;;;3.20;1.00;4.10;93300.00;;;;7396536;19;20140;-78
2022/04/05 06:18:42;;;;;;;3.47;2.93;;;3.30;1.00;3.90;93324.00;;;;7398228;19;20469;-78
2022/04/05 06:21:09;;;;;;;2.80;2.50;;;3.30;1.00;3.90;93299.00;;;;7396688;19;20141;-79
2022/04/05 06:23:43;;;;;;;4.17;2.80;;;3.50;1.00;4.20;93314.00;;;;7396285;19;20136;-78
2022/04/05 06:26:11;;;;;;;2.87;2.57;;;3.50;1.00;4.30;93327.00;;;;7397717;19;20208;-78
2022/04/05 06:28:39;;;;;;;3.00;2.70;;;3.60;99.90;4.20;93311.00;;;;7398656;19;20189;-78
2022/04/05 06:31:12;;;;;;;2.77;2.53;;;3.60;99.90;4.30;93290.00;;;;7396470;19;20632;-77
2022/04/05 06:33:52;;;;;;;3.23;2.60;;;3.70;99.90;4.40;93294.00;;;;7395523;19;20164;-77
2022/04/05 06:36:26;;;;;;;2.77;2.47;;;3.80;99.90;4.60;93309.00;;;;7397675;19;20137;-79
2022/04/05 06:39:00;;;;;;;2.40;2.20;;;3.80;99.90;4.60;93292.00;;;;7396698;19;20145;-77
2022/04/05 06:41:35;;;;;;;2.47;2.13;;;3.90;99.90;4.70;93337.00;;;;7395839;19;20164;-77
2022/04/05 06:44:02;;;;;;;2.80;2.40;;;4.00;99.90;5.00;93334.00;;;;7396859;19;20145;-77
2022/04/05 06:46:30;;;;;;;2.87;2.30;;;4.20;99.90;5.20;93321.00;;;;7396059;19;20144;-76
2022/04/05 06:49:03;;;;;;;2.87;2.00;;;4.30;99.90;5.10;93308.00;;;;7396186;19;20157;-77
2022/04/05 06:51:31;;;;;;;2.60;2.00;;;4.50;47.00;5.40;93316.00;;;;7396495;19;20158;-77
2022/04/05 06:54:05;;;;;;;2.77;2.20;;;4.60;1.00;5.30;93311.00;;;;7396245;19;20583;-79
2022/04/05 06:56:38;;;;;;;2.20;2.00;;;4.60;1.00;5.50;93298.00;;;;7395687;19;20160;-78
2022/04/05 06:59:05;;;;;;;3.13;2.27;;;4.70;1.00;5.70;93306.00;;;;7395410;19;20635;-78
2022/04/05 07:01:32;;;;;;;3.97;2.03;;;4.80;1.00;5.70;93298.00;;;;7395575;19;20491;-78
2022/04/05 07:04:06;;;;;;;2.63;2.03;;;4.90;1.00;5.60;93302.00;;;;7394574;19;20487;-79
2022/04/05 07:06:35;;;;;;;2.80;2.50;;;4.90;1.00;5.60;93305.00;;;;7394841;19;20148;-77
2022/04/05 07:09:05;;;;;;;3.33;2.30;;;5.00;1.00;5.40;93325.00;;;;7395299;19;20164;-80
2022/04/05 07:11:38;;;;;;;2.90;2.47;;;4.90;1.00;5.40;93315.00;;;;7396284;19;20466;-80
2022/04/05 07:14:05;;;;;;;2.60;2.40;;;4.70;1.00;5.40;93322.00;;;;7395101;19;20175;-79
2022/04/05 07:16:33;;;;;;;3.33;2.60;;;4.70;1.00;5.40;93314.00;;;;7395381;19;20148;-79
2022/04/05 07:19:07;;;;;;;4.07;2.20;;;4.70;1.00;5.60;93321.00;;;;7396384;19;20164;-81
2022/04/05 07:21:34;;;;;;;3.27;2.47;;;4.70;1.00;5.30;93325.00;;;;7395383;19;20147;-81
2022/04/05 07:24:01;;;;;;;2.63;2.43;;;4.70;1.00;5.40;93330.00;;;;7395290;19;20165;-80
2022/04/05 07:26:36;;;;;;;2.50;2.30;;;4.80;1.00;5.20;93315.00;;;;7396879;19;20129;-80
2022/04/05 07:29:03;;;;;;;3.93;2.43;;;4.80;1.00;5.30;93314.00;;;;7396304;19;20139;-78
2022/04/05 07:31:31;;;;;;;2.83;2.40;;;4.80;1.00;5.30;93317.00;;;;7394106;19;20145;-79
2022/04/05 07:34:17;;;;;;;2.60;2.33;;;4.90;1.00;5.60;93325.00;;;;7394094;19;20654;-77
2022/04/05 07:36:52;;;;;;;3.17;2.20;;;5.00;99.90;5.90;93320.00;;;;7395726;19;20610;-77
2022/04/05 07:39:26;;;;;;;3.80;2.40;;;5.10;1.00;6.00;93312.00;;;;7397056;19;20141;-79
2022/04/05 07:41:53;;;;;;;2.73;2.27;;;5.10;99.90;6.00;93308.00;;;;7396652;19;20137;-80
2022/04/05 07:44:21;;;;;;;4.03;2.03;;;5.20;99.90;6.20;93313.00;;;;7391536;19;20875;-79
2022/04/05 07:46:54;;;;;;;3.10;2.10;;;5.30;99.90;6.40;93311.00;;;;7393189;19;20173;-79
2022/04/05 07:49:22;;;;;;;3.17;2.17;;;;;6.40;93328.00;;;;7388020;19;20121;-78
2022/04/05 07:51:49;;;;;;;2.60;2.00;;;;;6.30;93336.00;;;;7389797;19;20132;-77
2022/04/05 07:54:24;;;;;;;2.77;2.43;;;;;6.40;93336.00;;;;7388231;19;20140;-80
2022/04/05 07:56:51;;;;;;;5.23;2.30;;;;;6.50;93325.00;;;;7389856;19;20170;-78
2022/04/05 07:59:19;;;;;;;2.60;1.90;;;;;6.30;93343.00;;;;7393284;19;20144;-79
2022/04/05 08:01:53;;;;;;;3.10;2.37;;;;;6.60;93339.00;;;;7394980;19;20125;-80
2022/04/05 08:04:40;;;;;;;4.97;2.37;;;;;6.50;93341.00;;;;7396083;19;20143;-81
2022/04/05 08:07:14;;;;;;;3.67;2.20;;;;;6.30;93338.00;;;;7394730;19;20774;-80
2022/04/05 08:09:41;;;;;;;3.40;2.40;;;;;6.50;93336.00;;;;7392346;19;20180;-82
2022/04/05 08:12:09;;;;;;;3.20;1.90;;;;;6.20;93324.00;;;;7394246;19;20133;-81
2022/04/05 08:14:43;;;;;;;3.37;2.10;;;;;6.60;93335.00;;;;7393364;19;20125;-80
2022/04/05 08:17:10;;;;;;;2.53;2.10;;;;;6.40;93338.00;;;;7391349;19;20145;-79
2022/04/05 08:19:38;;;;;;;2.83;2.13;;;;;6.20;93346.00;;;;7394727;19;20156;-80
2022/04/05 08:22:12;;;;;;;2.67;1.90;;;;;6.40;93353.00;;;;7392626;19;20124;-78
2022/04/05 08:24:41;;;;;;;3.17;2.37;;;;;6.20;93358.00;;;;7394006;19;20129;-79
2022/04/05 08:27:08;;;;;;;3.53;2.40;;;;;6.40;93359.00;;;;7392995;19;20247;-80
2022/04/05 08:29:43;;;;;;;1.90;1.80;;;;;6.50;93352.00;;;;7393192;19;20612;-78
2022/04/05 08:32:10;;;;;;;4.33;3.50;;;;;6.40;93360.00;;;;7392583;19;20634;-78
2022/04/05 08:34:51;;;;;;;2.93;2.30;;;;;6.40;93368.00;;;;7390334;19;20244;-79
2022/04/05 08:37:26;;;;;;;3.23;2.00;;;;;7.00;93356.00;;;;7392665;19;20142;-80
2022/04/05 08:39:53;;;;;;;2.90;2.20;;;;;7.40;93361.00;;;;7392093;19;20133;-79
2022/04/05 08:42:24;;;;;;;2.60;1.97;;;;;7.60;93365.00;;;;7390748;19;20139;-79
2022/04/05 08:44:59;;;;;;;2.00;1.80;;;;;7.50;93372.00;;;;7391995;19;20663;-78
2022/04/05 08:47:28;;;;;;;2.30;1.63;;;;;7.70;93365.00;;;;7392907;19;20507;-79
2022/04/05 08:49:56;;;;;;;1.70;1.60;;;;;7.90;93365.00;;;;7392335;19;20145;-79
2022/04/05 08:52:31;;;;;;;3.73;1.77;;;;;7.40;93370.00;;;;7391779;19;20145;-80
2022/04/05 08:54:58;;;;;;;1.70;1.60;;;6.80;1.00;7.20;93346.00;;;;7392862;19;20141;-84
2022/04/05 08:57:25;;;;;;;1.77;1.67;;;6.90;1.00;6.90;93392.00;;;;7398091;19;20129;-81
2022/04/05 09:00:02;;;;;;;2.53;1.90;;;6.70;1.00;6.70;93368.00;;;;7394340;19;20936;-79
2022/04/05 09:02:29;;;;;;;1.83;1.60;;;6.40;99.90;6.60;93358.00;;;;7396666;19;20137;-78
2022/04/05 09:04:56;;;;;;;2.27;1.83;;;6.10;99.90;6.60;93367.00;;;;7393289;19;20121;-80
2022/04/05 09:07:34;;;;;;;2.43;2.00;;;6.20;99.90;6.80;93357.00;;;;7395326;19;20205;-80
2022/04/05 09:10:14;;;;;;;2.30;1.80;;;6.10;99.90;6.70;93380.00;;;;7391146;19;20133;-80
2022/04/05 09:12:51;;;;;;;2.03;1.80;;;6.00;1.00;7.40;93365.00;;;;7391869;19;20141;-79
2022/04/05 09:15:35;;;;;;;1.70;1.60;;;6.20;99.90;7.20;93319.00;;;;7392187;19;20163;-79
2022/04/05 09:18:16;;;;;;;2.67;1.80;;;6.20;99.90;6.70;93377.00;;;;7391195;19;20139;-80
2022/04/05 09:20:46;;;;;;;2.57;1.50;;;6.20;99.90;6.80;93381.00;;;;7390706;19;20591;-81
2022/04/05 09:23:38;;;;;;;1.93;1.60;;;6.30;99.90;7.10;93370.00;;;;7389269;19;20124;-82
2022/04/05 09:26:12;;;;;;;1.70;1.50;;;6.40;99.90;7.50;93395.00;;;;7391484;19;20497;-80
2022/04/05 09:28:51;;;;;;;1.70;1.60;;;6.60;99.90;8.00;93361.00;;;;7391050;19;20151;-80
2022/04/05 09:31:22;;;;;;;2.57;1.73;;;6.70;99.90;7.90;93383.00;;;;7393601;19;20595;-79
2022/04/05 09:34:21;;;;;;;1.50;1.40;;;6.80;99.90;8.30;93395.00;;;;7390781;19;20168;-81
2022/04/05 09:36:51;;;;;;;2.63;1.70;;;7.20;99.90;8.40;93394.00;;;;7390778;19;20762;-80
2022/04/05 09:39:26;;;;;;;1.87;1.50;;;7.50;1.00;8.40;93383.00;;;;7388092;19;20160;-79
2022/04/05 09:42:03;;;;;;;2.90;1.50;;;7.30;1.00;7.80;93396.00;;;;7391633;19;20125;-80
2022/04/05 09:44:43;;;;;;;1.87;1.30;;;7.40;1.00;7.60;93381.00;;;;7384685;19;20141;-80
2022/04/05 09:47:19;;;;;;;3.57;1.40;;;7.40;1.00;7.70;93391.00;;;;7384884;19;20220;-81
2022/04/05 09:49:57;;;;;;;1.73;1.50;;;7.20;59.20;8.10;93368.00;;;;7384545;19;20141;-81
2022/04/05 09:52:34;;;;;;;1.70;1.50;;;7.20;99.90;8.00;93369.00;;;;7385681;19;20449;-81
2022/04/05 09:55:15;;;;;;;2.73;1.33;;;7.00;99.90;8.00;93389.00;;;;7385792;19;20157;-79
2022/04/05 09:57:43;;;;;;;2.93;2.00;;;7.10;99.90;8.20;93380.00;;;;7386169;19;20141;-84
2022/04/05 10:00:19;;;;;;;1.77;1.47;;;7.20;99.90;8.20;93389.00;;;;7384661;19;20486;-80
2022/04/05 10:03:10;;;;;;;1.60;1.43;;;7.10;99.90;7.80;93402.00;;;;7387519;19;20592;-81
2022/04/05 10:05:53;;;;;;;1.50;1.40;;;7.00;99.90;7.70;93377.00;;;;7385168;19;20133;-80
2022/04/05 10:08:21;;;;;;;1.60;1.50;;;6.90;99.90;8.00;93407.00;;;;7383980;19;20140;-81
2022/04/05 10:10:56;;;;;;;1.93;1.20;;;7.00;99.90;8.00;93381.00;;;;7385730;19;20141;-81
2022/04/05 10:13:23;;;;;;;3.03;1.53;;;7.10;99.90;7.80;93388.00;;;;7386718;19;20133;-81
2022/04/05 10:15:51;;;;;;;1.67;1.30;;;7.10;99.90;8.20;93388.00;;;;7384911;19;20160;-82
2022/04/05 10:18:33;;;;;;;1.67;1.33;;;7.00;99.90;8.00;93413.00;;;;7385308;19;20136;-84
2022/04/05 10:21:04;;;;;;;1.73;1.30;;;7.10;99.90;8.00;93392.00;;;;7385836;19;20502;-84
2022/04/05 10:23:43;;;;;;;2.63;2.10;;;7.20;99.90;8.20;93376.00;;;;7392100;19;20140;-82
2022/04/05 10:26:16;;;;;;;2.60;1.43;;;7.30;99.90;8.50;93394.00;;;;7383866;19;20607;-81
2022/04/05 10:28:51;;;;;;;3.07;1.43;;;7.20;99.90;8.30;93415.00;;;;7384753;19;20158;-83
2022/04/05 10:31:43;;;;;;;1.83;1.50;;;7.10;99.90;8.50;93401.00;;;;7394585;19;20125;-78
2022/04/05 10:34:36;;;;;;;1.50;1.40;;;7.40;99.90;8.90;93390.00;;;;7384446;19;20177;-80
2022/04/05 10:37:28;;;;;;;1.43;1.30;;;7.80;1.00;8.90;93383.00;;;;7385138;19;20129;-79
2022/04/05 10:40:01;;;;;;;1.40;1.30;;;7.80;1.00;8.20;93416.00;;;;7388657;19;20599;-80
2022/04/05 10:42:41;;;;;;;1.40;1.30;;;7.70;1.00;8.10;93392.00;;;;7394497;19;20125;-80
2022/04/05 10:45:29;;;;;;;1.47;1.20;;;7.60;1.00;8.80;93408.00;;;;7391295;19;20136;-82
2022/04/05 10:48:15;;;;;;;1.33;1.23;;;7.90;1.00;9.50;93390.00;;;;7393240;19;20151;-82
2022/04/05 10:51:01;;;;;;;1.30;1.20;;;8.00;1.00;9.80;93395.00;;;;7390989;19;20152;-80
2022/04/05 10:53:33;;;;;;;1.50;1.40;;;8.30;1.00;8.80;93380.00;;;;7392100;19;20480;-83
2022/04/05 10:56:08;;;;;;;2.33;1.10;;;8.20;1.00;8.50;93402.00;;;;7394229;19;20125;-83
2022/04/05 10:59:07;;;;;;;1.40;1.30;;;8.30;1.00;8.90;93409.00;;;;7394504;19;20133;-81
2022/04/05 11:01:45;;;;;;;1.33;1.20;;;8.20;1.00;9.10;93413.00;;;;7391195;19;20137;-79
2022/04/05 11:04:16;;;;;;;1.23;1.10;;;8.00;1.00;8.20;93408.00;;;;7392280;19;20136;-82
2022/04/05 11:07:02;;;;;;;1.30;1.20;;;8.00;1.00;8.20;93419.00;;;;7393337;19;20137;-82
2022/04/05 11:09:44;;;;;;;1.23;0.97;;;7.70;1.00;8.40;93411.00;;;;7389443;19;20133;-80
2022/04/05 11:12:26;;;;;;;1.83;1.20;;;7.50;1.00;8.20;93388.00;;;;7391358;19;20517;-81
2022/04/05 11:15:04;;;;;;;1.40;1.17;;;7.60;1.00;8.20;93429.00;;;;7391227;19;20532;-81
2022/04/05 11:17:41;;;;;;;2.63;1.27;;;7.40;1.00;7.90;93402.00;;;;7395567;19;20133;-81
2022/04/05 11:20:10;;;;;;;1.60;1.37;;;7.40;7.40;7.60;93400.00;;;;7396109;19;20156;-80
2022/04/05 11:22:39;;;;;;;2.00;1.80;;;7.20;75.90;7.30;93409.00;;;;7394518;19;20141;-77
2022/04/05 11:25:26;;;;;;;1.33;1.23;;;7.20;99.90;7.70;93418.00;;;;7391808;19;20170;-80
2022/04/05 11:27:53;;;;;;;2.20;1.40;;;7.00;99.90;7.90;93393.00;;;;7391191;19;20179;-80
2022/04/05 11:30:55;;;;;;;1.20;1.10;;;7.10;99.90;7.70;93393.00;;;;7392281;19;20224;-80
2022/04/05 11:33:36;;;;;;;2.53;1.03;;;7.00;99.90;7.90;93400.00;;;;7390792;19;20163;-80
2022/04/05 11:36:25;;;;;;;2.13;1.07;;;7.10;99.90;8.10;93384.00;;;;7389955;19;20602;-80
2022/04/05 11:38:58;;;;;;;4.10;1.40;;;7.20;99.90;7.80;93399.00;;;;7390766;19;20631;-81
2022/04/05 11:41:31;;;;;;;2.47;1.20;;;7.20;73.50;8.30;93367.00;;;;7390649;19;20579;-81
2022/04/05 11:44:03;;;;;;;1.30;0.97;;;7.30;99.90;8.60;93368.00;;;;7387217;19;20463;-80